Time;durP1;ratioP1;P1;durP2;ratioP2;P2;SDS_P1;SDS_P2;PMS_P1;PMS_P2;Temp;Humidity;BMP_temperature;BMP_pressure;BME280_temperature;BME280_humidity;BME280_pressure;Samples;Min_cycle;Max_cycle;Signal;HPM_P1;HPM_P2
2022/07/30 00:00:52;;;;;;;6.27;0.90;;;17.20;99.90;;;;;;5114337;28;21160;-84
2022/07/30 00:03:19;;;;;;;1.10;1.00;;;17.20;99.90;;;;;;5109373;28;20466;-85
2022/07/30 00:05:48;;;;;;;0.87;0.77;;;17.20;99.90;;;;;;5111694;28;21007;-85
2022/07/30 00:08:15;;;;;;;0.70;0.67;;;17.30;99.90;;;;;;5108195;28;20956;-85
2022/07/30 00:10:42;;;;;;;1.67;0.77;;;17.30;99.90;;;;;;5111863;28;20917;-85
2022/07/30 00:13:09;;;;;;;1.07;0.97;;;17.30;99.90;;;;;;5110348;28;20458;-85
2022/07/30 00:15:37;;;;;;;3.07;0.97;;;17.30;99.90;;;;;;5111275;28;20461;-84
2022/07/30 00:18:04;;;;;;;0.60;0.60;;;17.40;99.90;;;;;;5111920;28;20458;-85
2022/07/30 00:20:31;;;;;;;1.20;1.10;;;17.40;99.90;;;;;;5114120;28;20474;-85
2022/07/30 00:23:02;;;;;;;0.80;0.77;;;17.30;99.90;;;;;;5111595;28;20924;-85
2022/07/30 00:25:30;;;;;;;0.93;0.87;;;17.40;99.90;;;;;;5108125;28;20490;-85
2022/07/30 00:27:57;;;;;;;1.00;0.70;;;17.60;99.90;;;;;;5109111;28;20485;-84
2022/07/30 00:30:24;;;;;;;0.63;0.63;;;17.60;99.90;;;;;;5106461;28;20521;-84
2022/07/30 00:32:51;;;;;;;1.07;0.60;;;17.50;99.90;;;;;;5111018;27;20470;-84
2022/07/30 00:35:18;;;;;;;1.10;0.80;;;17.50;99.90;;;;;;5111518;27;20494;-84
2022/07/30 00:37:45;;;;;;;0.80;0.80;;;17.40;99.90;;;;;;5117654;27;20462;-84
2022/07/30 00:40:13;;;;;;;1.00;0.90;;;17.30;99.90;;;;;;5116109;27;20494;-84
2022/07/30 00:42:41;;;;;;;1.13;1.00;;;17.40;99.90;;;;;;5123898;27;20453;-84
2022/07/30 00:45:10;;;;;;;1.00;0.90;;;17.40;99.90;;;;;;5124938;27;20565;-84
2022/07/30 00:47:38;;;;;;;0.70;0.60;;;17.40;99.90;;;;;;5122923;27;20456;-84
2022/07/30 00:50:08;;;;;;;1.40;0.70;;;17.40;99.90;;;;;;5118646;27;20505;-84
2022/07/30 00:52:37;;;;;;;0.93;0.70;;;17.40;99.90;;;;;;5118095;27;20469;-84
2022/07/30 00:55:06;;;;;;;1.67;1.00;;;17.30;99.90;;;;;;5115260;27;20472;-84
2022/07/30 00:57:34;;;;;;;1.10;0.63;;;17.30;99.90;;;;;;5116657;27;21185;-84
2022/07/30 01:00:01;;;;;;;1.00;0.90;;;17.30;99.90;;;;;;5117673;27;20441;-84
2022/07/30 01:02:28;;;;;;;0.87;0.60;;;17.20;99.90;;;;;;5115589;27;20472;-84
2022/07/30 01:04:55;;;;;;;1.57;0.60;;;17.20;99.90;;;;;;5114125;27;20981;-84
2022/07/30 01:07:22;;;;;;;2.60;0.80;;;17.20;99.90;;;;;;5115222;27;20839;-84
2022/07/30 01:09:49;;;;;;;0.60;0.60;;;17.30;99.90;;;;;;5115371;27;21011;-84
2022/07/30 01:12:20;;;;;;;0.70;0.70;;;17.30;99.90;;;;;;5112772;27;20525;-84
2022/07/30 01:14:49;;;;;;;0.80;0.60;;;17.20;99.90;;;;;;5115023;27;20495;-83
2022/07/30 01:17:16;;;;;;;0.80;0.80;;;17.20;99.90;;;;;;5111660;27;20550;-84
2022/07/30 01:19:51;;;;;;;1.00;0.80;;;17.10;99.90;;;;;;5111108;27;20456;-84
2022/07/30 01:22:28;;;;;;;1.40;1.00;;;17.10;99.90;;;;;;5113995;27;20452;-84
2022/07/30 01:25:01;;;;;;;2.10;0.80;;;17.10;99.90;;;;;;5114955;27;20995;-84
2022/07/30 01:27:35;;;;;;;1.37;0.80;;;17.00;99.90;;;;;;5112830;27;20449;-84
2022/07/30 01:30:04;;;;;;;1.33;1.10;;;17.00;99.90;;;;;;5110523;27;20485;-83
2022/07/30 01:32:34;;;;;;;1.33;0.93;;;16.90;99.90;;;;;;5113969;27;20522;-83
2022/07/30 01:35:02;;;;;;;1.30;0.93;;;16.90;99.90;;;;;;5111272;27;20541;-83
2022/07/30 01:37:31;;;;;;;3.80;0.90;;;17.00;99.90;;;;;;5111710;27;20449;-84
2022/07/30 01:39:58;;;;;;;2.80;1.20;;;17.00;99.90;;;;;;5115889;27;20521;-83
2022/07/30 01:42:29;;;;;;;1.40;0.60;;;17.00;99.90;;;;;;5113635;27;20461;-83
2022/07/30 01:44:58;;;;;;;0.77;0.73;;;17.00;99.90;;;;;;5110715;27;20493;-83
2022/07/30 01:47:27;;;;;;;1.23;0.80;;;17.00;99.90;;;;;;5111287;27;20492;-83
2022/07/30 01:49:55;;;;;;;1.47;1.20;;;17.00;99.90;;;;;;5112572;27;20488;-83
2022/07/30 01:52:25;;;;;;;1.37;1.00;;;17.00;99.90;;;;;;5114915;27;20476;-83
2022/07/30 01:54:55;;;;;;;2.30;0.93;;;17.00;99.90;;;;;;5113851;27;20470;-83
2022/07/30 01:57:24;;;;;;;1.77;0.80;;;17.00;99.90;;;;;;5111345;27;20522;-83
2022/07/30 01:59:59;;;;;;;1.13;0.83;;;16.90;99.90;;;;;;5113940;27;20449;-83
2022/07/30 02:02:26;;;;;;;1.07;0.83;;;16.90;99.90;;;;;;5113740;27;20459;-83
2022/07/30 02:04:53;;;;;;;2.43;1.10;;;17.00;99.90;;;;;;5112831;27;20533;-83
2022/07/30 02:07:27;;;;;;;1.50;1.20;;;17.00;99.90;;;;;;5111451;27;20461;-84
2022/07/30 02:09:57;;;;;;;1.10;1.00;;;17.00;99.90;;;;;;5114979;27;20517;-83
2022/07/30 02:12:29;;;;;;;0.80;0.73;;;17.00;99.90;;;;;;5109596;27;20465;-84
2022/07/30 02:15:14;;;;;;;1.67;1.10;;;17.00;99.90;;;;;;5112910;27;20517;-83
2022/07/30 02:17:44;;;;;;;1.30;1.20;;;17.00;99.90;;;;;;5110057;27;20515;-83
2022/07/30 02:20:13;;;;;;;1.53;1.40;;;17.00;99.90;;;;;;5111282;27;20446;-83
2022/07/30 02:22:44;;;;;;;1.73;1.03;;;17.00;99.90;;;;;;5111751;27;21564;-83
2022/07/30 02:25:17;;;;;;;1.13;0.87;;;17.00;99.90;;;;;;5109807;27;20550;-84
2022/07/30 02:27:46;;;;;;;2.40;1.10;;;16.90;99.90;;;;;;5113973;27;20461;-83
2022/07/30 02:30:16;;;;;;;0.90;0.90;;;16.90;99.90;;;;;;5113287;27;20560;-83
2022/07/30 02:32:44;;;;;;;1.77;1.67;;;16.90;99.90;;;;;;5116780;27;20534;-83
2022/07/30 02:35:15;;;;;;;0.73;0.73;;;16.90;99.90;;;;;;5111256;27;20458;-83
2022/07/30 02:37:45;;;;;;;1.70;1.40;;;17.00;99.90;;;;;;5115844;27;20502;-83
2022/07/30 02:40:16;;;;;;;0.87;0.83;;;16.90;99.90;;;;;;5115408;27;20556;-83
2022/07/30 02:42:46;;;;;;;1.20;1.13;;;16.90;99.90;;;;;;5106806;27;20446;-83
2022/07/30 02:45:17;;;;;;;1.30;1.10;;;16.90;99.90;;;;;;5112581;27;20555;-83
2022/07/30 02:47:46;;;;;;;1.53;1.30;;;16.80;99.90;;;;;;5114352;27;20540;-83
2022/07/30 02:50:16;;;;;;;1.10;0.97;;;16.80;99.90;;;;;;5113898;27;20511;-83
2022/07/30 02:52:44;;;;;;;1.63;1.07;;;16.80;99.90;;;;;;5108973;27;20437;-84
2022/07/30 02:55:13;;;;;;;1.47;1.33;;;16.80;99.90;;;;;;5114191;27;20511;-84
2022/07/30 02:57:41;;;;;;;4.77;0.87;;;16.80;99.90;;;;;;5112345;27;20976;-84
2022/07/30 03:00:10;;;;;;;1.00;0.83;;;16.80;99.90;;;;;;5113406;27;20870;-84
2022/07/30 03:02:40;;;;;;;1.47;1.03;;;16.80;99.90;;;;;;5112413;27;21923;-84
2022/07/30 03:05:09;;;;;;;1.60;1.33;;;16.80;99.90;;;;;;5112054;27;20536;-83
2022/07/30 03:07:38;;;;;;;0.80;0.80;;;16.80;99.90;;;;;;5111872;27;20522;-84
2022/07/30 03:10:06;;;;;;;1.30;1.13;;;16.80;99.90;;;;;;5114577;27;20481;-83
2022/07/30 03:12:34;;;;;;;1.50;1.40;;;16.80;99.90;;;;;;5111073;27;20492;-84
2022/07/30 03:15:02;;;;;;;1.57;1.10;;;16.80;99.90;;;;;;5116567;27;20472;-84
2022/07/30 03:17:36;;;;;;;1.20;1.10;;;16.80;99.90;;;;;;5110090;27;20461;-84
2022/07/30 03:20:08;;;;;;;1.37;0.93;;;16.80;99.90;;;;;;5113941;28;20472;-84
2022/07/30 03:22:38;;;;;;;2.17;1.87;;;16.80;99.90;;;;;;5108276;28;20457;-84
2022/07/30 03:25:07;;;;;;;2.23;1.60;;;16.80;99.90;;;;;;5112162;27;20793;-84
2022/07/30 03:27:38;;;;;;;1.63;1.53;;;16.80;99.90;;;;;;5108008;28;20462;-84
2022/07/30 03:30:06;;;;;;;1.87;1.37;;;16.80;99.90;;;;;;5114380;28;20570;-84
2022/07/30 03:32:35;;;;;;;1.57;1.37;;;16.70;99.90;;;;;;5110394;28;20520;-84
2022/07/30 03:35:02;;;;;;;1.50;1.20;;;16.70;99.90;;;;;;5114499;28;21124;-85
2022/07/30 03:37:31;;;;;;;1.43;1.33;;;16.70;99.90;;;;;;5110031;28;20468;-84
2022/07/30 03:39:59;;;;;;;1.30;1.20;;;16.70;99.90;;;;;;5124340;28;20467;-83
2022/07/30 03:42:28;;;;;;;2.00;1.20;;;16.60;99.90;;;;;;5116031;28;20464;-84
2022/07/30 03:44:56;;;;;;;0.80;0.80;;;16.70;99.90;;;;;;5115894;28;20465;-84
2022/07/30 03:47:25;;;;;;;1.53;1.37;;;16.60;99.90;;;;;;5112448;28;20509;-84
2022/07/30 03:49:52;;;;;;;1.47;1.37;;;16.70;99.90;;;;;;5112992;28;21098;-83
2022/07/30 03:52:20;;;;;;;1.93;1.80;;;16.60;99.90;;;;;;5113988;28;20467;-83
2022/07/30 03:54:49;;;;;;;1.43;1.30;;;16.60;99.90;;;;;;5110865;28;20472;-84
2022/07/30 03:57:16;;;;;;;1.50;1.33;;;16.60;99.90;;;;;;5114351;28;20465;-84
2022/07/30 03:59:43;;;;;;;2.80;1.87;;;16.60;99.90;;;;;;5111121;28;20521;-84
2022/07/30 04:02:10;;;;;;;1.93;1.47;;;16.60;99.90;;;;;;5114375;28;20600;-84
2022/07/30 04:04:41;;;;;;;1.47;1.40;;;16.50;99.90;;;;;;5109766;28;20972;-84
2022/07/30 04:07:09;;;;;;;1.20;1.00;;;16.60;99.90;;;;;;5112930;27;20460;-84
2022/07/30 04:09:36;;;;;;;2.60;1.70;;;16.60;99.90;;;;;;5114458;27;20480;-84
2022/07/30 04:12:05;;;;;;;1.67;1.57;;;16.60;99.90;;;;;;5112750;27;21142;-84
2022/07/30 04:14:40;;;;;;;2.13;1.60;;;16.60;99.90;;;;;;5115003;27;20467;-84
2022/07/30 04:17:10;;;;;;;3.90;1.87;;;16.60;99.90;;;;;;5116019;27;20542;-84
2022/07/30 04:19:43;;;;;;;3.50;1.13;;;16.50;99.90;;;;;;5114188;27;20829;-84
2022/07/30 04:22:14;;;;;;;8.90;1.33;;;16.50;99.90;;;;;;5116821;27;20847;-83
2022/07/30 04:24:44;;;;;;;1.23;1.13;;;16.50;99.90;;;;;;5115171;27;20500;-84
2022/07/30 04:27:13;;;;;;;1.50;1.40;;;16.50;99.90;;;;;;5118671;27;20547;-84
2022/07/30 04:29:41;;;;;;;1.17;1.00;;;16.50;99.90;;;;;;5112407;27;20540;-84
2022/07/30 04:32:09;;;;;;;1.67;1.30;;;16.50;99.90;;;;;;5117688;27;20467;-83
2022/07/30 04:34:36;;;;;;;0.73;0.60;;;16.50;99.90;;;;;;5108989;27;20474;-83
2022/07/30 04:37:03;;;;;;;0.90;0.70;;;16.40;99.90;;;;;;5114795;27;20820;-84
2022/07/30 04:39:30;;;;;;;1.10;0.80;;;16.50;99.90;;;;;;5114826;27;20942;-84
2022/07/30 04:41:57;;;;;;;1.23;1.07;;;16.50;99.90;;;;;;5112414;27;20472;-84
2022/07/30 04:44:26;;;;;;;0.70;0.70;;;16.60;99.90;;;;;;5114576;27;20472;-83
2022/07/30 04:46:52;;;;;;;1.00;0.77;;;16.60;99.90;;;;;;5117118;27;20480;-83
2022/07/30 04:49:21;;;;;;;0.90;0.90;;;16.60;99.90;;;;;;5115435;27;20484;-83
2022/07/30 04:51:49;;;;;;;1.67;1.30;;;16.60;99.90;;;;;;5114718;27;20471;-83
2022/07/30 04:54:18;;;;;;;1.10;0.80;;;16.60;99.90;;;;;;5117743;27;20463;-83
2022/07/30 04:56:47;;;;;;;1.73;0.80;;;16.60;99.90;;;;;;5114092;27;20597;-82
2022/07/30 04:59:16;;;;;;;1.47;1.20;;;16.60;99.90;;;;;;5116486;27;21030;-82
2022/07/30 05:01:48;;;;;;;1.13;0.90;;;16.60;99.90;;;;;;5114002;27;20468;-82
2022/07/30 05:04:16;;;;;;;0.90;0.60;;;16.60;99.90;;;;;;5116242;27;20533;-82
2022/07/30 05:06:44;;;;;;;1.00;0.90;;;16.50;99.90;;;;;;5111957;27;20461;-83
2022/07/30 05:09:11;;;;;;;0.90;0.73;;;16.60;99.90;;;;;;5115504;27;20469;-83
2022/07/30 05:11:39;;;;;;;1.43;0.70;;;16.60;99.90;;;;;;5112774;27;20543;-83
2022/07/30 05:14:06;;;;;;;1.00;0.90;;;16.70;99.90;;;;;;5111209;27;20453;-82
2022/07/30 05:16:33;;;;;;;1.17;0.93;;;16.70;99.90;;;;;;5112512;27;20481;-83
2022/07/30 05:19:02;;;;;;;2.03;1.07;;;16.70;99.90;;;;;;5114285;27;20457;-82
2022/07/30 05:21:29;;;;;;;1.00;0.80;;;16.80;99.90;;;;;;5105565;28;20518;-82
2022/07/30 05:23:56;;;;;;;0.97;0.97;;;16.80;99.90;;;;;;5109803;27;20459;-82
2022/07/30 05:26:23;;;;;;;0.77;0.77;;;16.80;99.90;;;;;;5114939;27;20445;-83
2022/07/30 05:28:50;;;;;;;0.60;0.60;;;16.70;99.90;;;;;;5105714;27;20473;-82
2022/07/30 05:31:17;;;;;;;1.30;0.90;;;16.70;99.90;;;;;;5111080;27;20580;-82
2022/07/30 05:33:44;;;;;;;0.80;0.80;;;16.70;99.90;;;;;;5112867;27;20532;-83
2022/07/30 05:36:13;;;;;;;1.17;0.90;;;16.70;99.90;;;;;;5121192;27;20465;-83
2022/07/30 05:38:40;;;;;;;0.97;0.70;;;16.70;99.90;;;;;;5112901;27;20466;-83
2022/07/30 05:41:07;;;;;;;0.90;0.90;;;16.70;99.90;;;;;;5111143;27;20520;-83
2022/07/30 05:43:34;;;;;;;1.50;1.40;;;16.80;99.90;;;;;;5112738;27;20457;-83
2022/07/30 05:46:01;;;;;;;1.47;0.73;;;16.80;99.90;;;;;;5113455;27;20463;-83
2022/07/30 05:48:30;;;;;;;1.30;0.70;;;16.90;99.90;;;;;;5110042;27;20528;-83
2022/07/30 05:50:57;;;;;;;1.77;0.90;;;16.90;99.90;;;;;;5112284;27;20485;-83
2022/07/30 05:53:26;;;;;;;1.17;1.07;;;16.90;99.90;;;;;;5113541;27;20473;-82
2022/07/30 05:55:53;;;;;;;1.60;1.03;;;17.00;99.90;;;;;;5113319;27;20476;-83
2022/07/30 05:58:20;;;;;;;1.47;0.97;;;17.00;99.90;;;;;;5112716;27;20496;-82
2022/07/30 06:00:47;;;;;;;1.20;1.00;;;16.90;99.90;;;;;;5109303;27;20814;-83
2022/07/30 06:03:14;;;;;;;0.83;0.70;;;16.90;99.90;;;;;;5110155;27;20908;-82
2022/07/30 06:05:42;;;;;;;1.23;1.07;;;16.90;99.90;;;;;;5108931;27;21473;-82
2022/07/30 06:08:09;;;;;;;0.80;0.77;;;17.00;99.90;;;;;;5110718;27;20456;-81
2022/07/30 06:10:37;;;;;;;1.43;1.23;;;17.10;99.90;;;;;;5113021;27;20495;-83
2022/07/30 06:13:04;;;;;;;1.20;1.10;;;17.10;99.90;;;;;;5110963;27;20532;-82
2022/07/30 06:15:31;;;;;;;1.30;1.20;;;17.20;99.90;;;;;;5110136;27;20473;-83
2022/07/30 06:17:58;;;;;;;1.30;0.87;;;17.30;99.90;;;;;;5109889;27;20466;-82
2022/07/30 06:20:25;;;;;;;1.53;1.17;;;17.30;99.90;;;;;;5112141;27;20461;-83
2022/07/30 06:22:52;;;;;;;1.70;1.57;;;17.30;99.90;;;;;;5112947;27;20461;-82
2022/07/30 06:25:19;;;;;;;1.20;0.70;;;17.30;99.90;;;;;;5115225;27;20492;-82
2022/07/30 06:27:47;;;;;;;2.50;1.30;;;17.20;99.90;;;;;;5103898;27;20476;-81
2022/07/30 06:30:14;;;;;;;0.97;0.97;;;17.30;99.90;;;;;;5110479;27;20477;-82
2022/07/30 06:32:42;;;;;;;0.90;0.73;;;17.20;99.90;;;;;;5113098;27;20523;-81
2022/07/30 06:35:09;;;;;;;3.77;1.30;;;17.20;99.90;;;;;;5108315;27;20549;-81
2022/07/30 06:37:36;;;;;;;2.10;1.43;;;17.40;99.90;;;;;;5105619;27;20487;-82
2022/07/30 06:40:04;;;;;;;1.37;1.27;;;17.50;99.90;;;;;;5107402;27;20461;-81
2022/07/30 06:42:31;;;;;;;0.70;0.70;;;17.50;99.90;;;;;;5106152;27;20577;-82
2022/07/30 06:45:00;;;;;;;1.00;0.90;;;17.60;99.90;;;;;;5113183;27;20560;-81
2022/07/30 06:47:27;;;;;;;1.13;0.77;;;17.70;99.90;;;;;;5107391;27;20453;-82
2022/07/30 06:49:55;;;;;;;1.00;0.93;;;17.80;99.90;;;;;;5109336;27;20453;-82
2022/07/30 06:52:22;;;;;;;0.90;0.90;;;17.90;99.90;;;;;;5113987;27;20555;-82
2022/07/30 06:54:49;;;;;;;1.30;0.90;;;17.80;99.90;;;;;;5114275;27;20461;-82
2022/07/30 06:57:16;;;;;;;0.80;0.80;;;17.90;99.90;;;;;;5110956;27;20461;-82
2022/07/30 06:59:43;;;;;;;1.30;0.63;;;17.90;99.90;;;;;;5112531;27;20530;-82
2022/07/30 07:02:12;;;;;;;1.13;1.00;;;18.00;99.90;;;;;;5107919;27;20653;-82
2022/07/30 07:04:39;;;;;;;1.57;0.80;;;17.90;99.90;;;;;;5109422;27;20526;-82
2022/07/30 07:07:06;;;;;;;0.87;0.87;;;18.00;99.90;;;;;;5112082;27;20445;-84
2022/07/30 07:09:33;;;;;;;1.13;0.80;;;18.10;99.90;;;;;;5106527;27;20506;-83
2022/07/30 07:12:00;;;;;;;0.97;0.93;;;18.10;99.90;;;;;;5112070;27;20484;-83
2022/07/30 07:14:27;;;;;;;1.10;1.00;;;18.10;99.90;;;;;;5111675;27;20440;-83
2022/07/30 07:16:54;;;;;;;0.70;0.70;;;18.20;99.90;;;;;;5101744;27;20464;-83
2022/07/30 07:19:23;;;;;;;0.77;0.77;;;18.20;99.90;;;;;;5105421;27;20458;-84
2022/07/30 07:21:50;;;;;;;1.53;1.43;;;18.30;99.90;;;;;;5103985;27;20542;-83
2022/07/30 07:24:16;;;;;;;0.80;0.80;;;18.30;99.90;;;;;;5107646;27;20489;-83
2022/07/30 07:26:44;;;;;;;1.20;1.10;;;18.40;99.90;;;;;;5107122;28;20454;-84
2022/07/30 07:29:11;;;;;;;0.97;0.87;;;18.50;99.90;;;;;;5113062;28;20528;-83
2022/07/30 07:31:38;;;;;;;1.37;1.10;;;18.70;99.90;;;;;;5113281;28;20482;-84
2022/07/30 07:34:05;;;;;;;1.70;0.97;;;18.80;99.90;;;;;;5113124;28;20519;-84
2022/07/30 07:36:35;;;;;;;1.77;1.07;;;18.80;99.90;;;;;;5115696;28;20468;-84
2022/07/30 07:39:02;;;;;;;2.67;1.83;;;18.90;99.90;;;;;;5112401;28;20851;-83
2022/07/30 07:41:29;;;;;;;1.30;1.20;;;19.00;99.90;;;;;;5106331;27;20537;-84
2022/07/30 07:43:56;;;;;;;1.63;0.90;;;19.00;99.90;;;;;;5112160;27;20457;-84
2022/07/30 07:46:23;;;;;;;1.10;0.70;;;19.00;99.90;;;;;;5113388;27;20937;-83
2022/07/30 07:48:50;;;;;;;1.20;1.10;;;19.20;99.90;;;;;;5114487;27;20459;-84
2022/07/30 07:51:17;;;;;;;1.30;1.07;;;19.20;99.90;;;;;;5114549;27;20482;-83
2022/07/30 07:53:45;;;;;;;1.57;1.47;;;19.20;99.90;;;;;;5108382;27;20975;-84
2022/07/30 07:56:12;;;;;;;2.53;1.30;;;19.30;99.90;;;;;;5116547;27;20460;-83
2022/07/30 07:58:40;;;;;;;2.47;1.30;;;19.30;99.90;;;;;;5120052;27;20459;-84
2022/07/30 08:01:07;;;;;;;1.00;0.90;;;19.30;99.90;;;;;;5122417;27;20463;-84
2022/07/30 08:03:34;;;;;;;1.80;1.13;;;19.40;99.90;;;;;;5119721;27;20505;-84
2022/07/30 08:06:01;;;;;;;2.27;1.20;;;19.40;99.90;;;;;;5107742;27;20972;-84
2022/07/30 08:08:28;;;;;;;0.90;0.90;;;19.50;99.90;;;;;;5109451;27;20468;-84
2022/07/30 08:10:57;;;;;;;2.50;1.07;;;19.60;99.90;;;;;;5114056;27;20480;-83
2022/07/30 08:13:24;;;;;;;1.23;1.03;;;19.40;99.90;;;;;;5110926;27;20518;-84
2022/07/30 08:15:51;;;;;;;0.80;0.70;;;19.40;99.90;;;;;;5111601;27;20465;-83
2022/07/30 08:18:18;;;;;;;0.80;0.80;;;19.40;99.90;;;;;;5110908;27;21138;-84
2022/07/30 08:20:45;;;;;;;0.90;0.90;;;19.40;99.90;;;;;;5107578;27;20461;-84
2022/07/30 08:23:12;;;;;;;1.10;1.10;;;19.50;99.90;;;;;;5117077;27;20508;-84
2022/07/30 08:25:39;;;;;;;3.03;0.80;;;19.70;99.90;;;;;;5113031;27;20564;-84
2022/07/30 08:28:07;;;;;;;0.87;0.87;;;19.70;99.90;;;;;;5115446;27;20551;-84
2022/07/30 08:30:34;;;;;;;1.50;0.80;;;19.80;99.90;;;;;;5109347;27;21029;-83
2022/07/30 08:33:01;;;;;;;1.10;1.00;;;19.60;99.90;;;;;;5114384;27;20693;-84
2022/07/30 08:35:28;;;;;;;2.00;1.77;;;19.70;99.90;;;;;;5112951;27;20476;-84
2022/07/30 08:37:56;;;;;;;1.27;1.17;;;19.60;99.90;;;;;;5111754;27;20856;-84
2022/07/30 08:40:26;;;;;;;1.43;1.33;;;19.70;99.90;;;;;;5106581;27;20477;-84
2022/07/30 08:42:53;;;;;;;1.40;1.30;;;19.70;99.90;;;;;;5113888;27;20456;-84
2022/07/30 08:45:22;;;;;;;1.33;0.90;;;19.90;99.90;;;;;;5111951;27;21265;-84
2022/07/30 08:47:52;;;;;;;1.10;1.10;;;20.00;99.90;;;;;;5109858;27;20995;-84
2022/07/30 08:50:19;;;;;;;1.57;1.33;;;20.10;99.90;;;;;;5111020;27;20465;-84
2022/07/30 08:52:47;;;;;;;1.90;1.20;;;19.90;99.90;;;;;;5103106;27;20543;-84
2022/07/30 08:55:16;;;;;;;1.30;1.20;;;19.90;99.90;;;;;;5107291;27;20464;-84
2022/07/30 08:57:44;;;;;;;1.50;0.90;;;20.20;99.90;;;;;;5110643;27;20526;-84
2022/07/30 09:00:13;;;;;;;1.30;1.10;;;20.40;99.90;;;;;;5107818;27;20457;-84
2022/07/30 09:02:41;;;;;;;1.23;1.10;;;20.50;99.90;;;;;;5107375;27;20531;-84
2022/07/30 09:05:10;;;;;;;1.20;1.10;;;20.40;99.90;;;;;;5109763;27;20454;-84
2022/07/30 09:07:38;;;;;;;3.80;1.47;;;20.20;99.90;;;;;;5110745;27;20595;-85
2022/07/30 09:10:05;;;;;;;4.00;1.70;;;20.20;99.90;;;;;;5111274;27;20477;-84
2022/07/30 09:12:34;;;;;;;2.00;1.73;;;20.20;99.90;;;;;;5107876;27;20482;-85
2022/07/30 09:15:04;;;;;;;1.50;1.40;;;20.20;99.90;;;;;;5111338;27;20453;-84
2022/07/30 09:17:46;;;;;;;1.37;1.27;;;20.30;99.90;;;;;;5114423;27;20896;-84
2022/07/30 09:20:13;;;;;;;3.50;1.73;;;20.20;99.90;;;;;;5116485;27;20464;-84
2022/07/30 09:22:43;;;;;;;3.17;2.83;;;20.30;99.90;;;;;;5122731;27;20507;-84
2022/07/30 09:25:10;;;;;;;2.50;1.73;;;20.50;99.90;;;;;;5110312;27;21030;-84
2022/07/30 09:27:48;;;;;;;1.60;1.50;;;20.70;99.90;;;;;;5118117;27;20497;-84
2022/07/30 09:30:16;;;;;;;2.03;1.83;;;20.90;99.90;;;;;;5109861;27;20483;-84
2022/07/30 09:32:53;;;;;;;2.03;1.93;;;21.10;99.90;;;;;;5107350;27;20494;-84
2022/07/30 09:35:21;;;;;;;1.93;1.83;;;21.20;99.90;;;;;;5112455;27;20907;-84
2022/07/30 09:37:59;;;;;;;3.40;1.90;;;20.90;99.90;;;;;;5110374;27;20469;-84
2022/07/30 09:40:27;;;;;;;1.60;1.50;;;21.00;99.90;;;;;;5106504;27;20960;-85
2022/07/30 09:43:16;;;;;;;4.60;2.67;;;20.80;99.90;;;;;;5112494;27;20524;-84
2022/07/30 09:45:50;;;;;;;1.80;1.70;;;20.90;99.90;;;;;;5108704;27;20536;-85
2022/07/30 09:48:23;;;;;;;1.20;1.10;;;20.90;99.90;;;;;;5108529;27;20834;-84
2022/07/30 09:50:51;;;;;;;1.73;1.47;;;20.90;99.90;;;;;;5106158;27;20464;-85
2022/07/30 09:53:21;;;;;;;1.33;1.23;;;21.00;99.90;;;;;;5111412;27;20456;-85
2022/07/30 09:55:48;;;;;;;1.97;1.83;;;21.00;99.90;;;;;;5110598;27;20543;-85
2022/07/30 09:58:15;;;;;;;1.90;1.80;;;21.00;99.90;;;;;;5106471;27;20466;-85
2022/07/30 10:00:43;;;;;;;1.73;1.63;;;21.00;99.90;;;;;;5106262;27;20473;-85
2022/07/30 10:03:18;;;;;;;2.00;1.90;;;21.10;99.90;;;;;;5108340;27;20850;-83
2022/07/30 10:05:54;;;;;;;2.03;1.67;;;21.10;99.90;;;;;;5105869;27;20456;-83
2022/07/30 10:08:37;;;;;;;1.57;1.47;;;21.60;99.90;;;;;;5106908;27;20455;-84
2022/07/30 10:11:05;;;;;;;1.20;1.13;;;21.70;99.90;;;;;;5114367;27;20482;-85
2022/07/30 10:13:33;;;;;;;1.40;1.30;;;21.70;99.90;;;;;;5114856;27;20467;-84
2022/07/30 10:16:04;;;;;;;1.13;1.03;;;21.60;99.90;;;;;;5110926;27;20544;-84
2022/07/30 10:18:31;;;;;;;1.50;1.37;;;21.40;99.90;;;;;;5105693;27;20464;-84
2022/07/30 10:21:01;;;;;;;1.50;1.10;;;21.50;99.90;;;;;;5105002;27;21180;-85
2022/07/30 10:23:29;;;;;;;1.27;1.17;;;21.50;99.90;;;;;;5106342;27;20468;-84
2022/07/30 10:25:56;;;;;;;1.27;1.17;;;21.80;99.90;;;;;;5108714;27;20576;-84
2022/07/30 10:28:25;;;;;;;2.50;1.13;;;21.70;99.90;;;;;;5105269;27;20485;-85
2022/07/30 10:30:55;;;;;;;1.90;1.10;;;21.80;99.90;;;;;;5103431;27;20532;-83
2022/07/30 10:33:23;;;;;;;1.40;1.30;;;21.90;99.90;;;;;;5113477;27;20489;-84
2022/07/30 10:35:50;;;;;;;1.03;0.90;;;21.80;99.90;;;;;;5111813;27;20521;-85
2022/07/30 10:38:22;;;;;;;1.43;1.10;;;22.30;99.90;;;;;;5107396;27;20526;-84
2022/07/30 10:40:54;;;;;;;1.73;1.20;;;22.80;99.90;;;;;;5105235;27;20905;-84
2022/07/30 10:43:53;;;;;;;1.70;1.50;;;22.90;99.90;;;;;;5115531;27;20513;-84
2022/07/30 10:46:32;;;;;;;1.13;1.03;;;23.10;99.90;;;;;;5109329;27;20659;-84
2022/07/30 10:49:09;;;;;;;1.97;1.20;;;23.10;99.90;;;;;;5102963;27;20480;-84
2022/07/30 10:51:47;;;;;;;1.20;1.10;;;23.60;99.90;;;;;;5105464;27;20485;-85
2022/07/30 10:54:38;;;;;;;1.57;1.47;;;23.70;99.90;;;;;;5110319;27;20461;-84
2022/07/30 10:57:06;;;;;;;0.90;0.90;;;23.80;99.90;;;;;;5104942;27;20464;-83
2022/07/30 11:00:09;;;;;;;1.03;1.03;;;24.00;99.90;;;;;;5100873;27;20962;-83
2022/07/30 11:02:36;;;;;;;2.20;1.10;;;24.30;99.90;;;;;;5104000;27;20461;-83
2022/07/30 11:05:24;;;;;;;1.17;1.10;;;24.00;99.90;;;;;;5109714;27;20468;-84
2022/07/30 11:07:51;;;;;;;1.20;1.10;;;23.80;99.90;;;;;;5115590;27;20548;-84
2022/07/30 11:10:46;;;;;;;1.13;0.90;;;23.80;99.90;;;;;;5121330;27;20452;-83
2022/07/30 11:13:13;;;;;;;1.77;1.67;;;24.00;99.90;;;;;;5065984;27;20489;-83
2022/07/30 11:15:55;;;;;;;1.37;1.27;;;24.10;99.90;;;;;;5105590;27;20965;-82
2022/07/30 11:18:23;;;;;;;1.23;1.13;;;24.10;99.90;;;;;;5111133;27;20465;-82
2022/07/30 11:21:16;;;;;;;2.00;1.80;;;24.20;99.90;;;;;;5101283;27;20848;-84
2022/07/30 11:23:44;;;;;;;1.87;1.77;;;24.50;99.90;;;;;;5104188;27;20545;-84
2022/07/30 11:26:50;;;;;;;1.47;1.20;;;24.60;99.90;;;;;;5106500;27;20492;-84
2022/07/30 11:29:39;;;;;;;1.87;1.77;;;24.20;99.90;;;;;;5110306;27;20932;-84
2022/07/30 11:32:30;;;;;;;1.67;1.57;;;23.60;99.30;;;;;;5105455;28;20571;-84
2022/07/30 11:35:16;;;;;;;1.70;1.60;;;23.10;99.90;;;;;;5108558;28;20465;-84
2022/07/30 11:38:06;;;;;;;1.93;1.80;;;23.20;99.90;;;;;;5104160;28;20868;-84
2022/07/30 11:40:35;;;;;;;1.50;1.40;;;23.60;99.90;;;;;;5104052;28;20454;-84
2022/07/30 11:43:21;;;;;;;1.50;1.40;;;23.70;99.50;;;;;;5103753;28;20479;-83
2022/07/30 11:46:06;;;;;;;2.90;1.37;;;23.40;98.40;;;;;;5100997;28;21014;-88
2022/07/30 11:48:45;;;;;;;1.10;1.10;;;23.50;99.90;;;;;;5107580;28;20461;-87
2022/07/30 11:51:13;;;;;;;2.40;1.00;;;23.20;99.90;;;;;;5107112;28;20484;-85
2022/07/30 11:53:40;;;;;;;2.50;1.83;;;23.10;99.90;;;;;;5092230;28;20520;-84
2022/07/30 11:56:09;;;;;;;2.17;1.67;;;23.10;99.90;;;;;;5103898;28;20917;-83
2022/07/30 11:58:38;;;;;;;4.03;1.00;;;23.10;99.90;;;;;;5107695;28;20937;-84
2022/07/30 12:01:11;;;;;;;2.17;1.30;;;23.20;99.90;;;;;;5109965;28;20462;-83
2022/07/30 12:03:41;;;;;;;1.57;1.30;;;23.40;99.90;;;;;;5107593;28;20459;-84
2022/07/30 12:06:12;;;;;;;1.23;1.10;;;23.30;99.90;;;;;;5111331;28;20462;-84
2022/07/30 12:08:41;;;;;;;2.03;0.90;;;23.00;99.90;;;;;;5104568;28;20834;-84
2022/07/30 12:11:08;;;;;;;0.70;0.70;;;22.50;99.90;;;;;;5107433;28;20502;-84
2022/07/30 12:13:37;;;;;;;0.80;0.73;;;22.00;99.90;;;;;;5106817;28;21006;-84
2022/07/30 12:16:08;;;;;;;1.17;1.07;;;21.80;99.90;;;;;;5105456;28;20461;-84
2022/07/30 12:18:36;;;;;;;1.67;1.57;;;22.10;99.90;;;;;;5107141;28;20468;-84
2022/07/30 12:21:07;;;;;;;1.53;1.43;;;23.00;99.90;;;;;;5107960;28;20498;-84
2022/07/30 12:23:34;;;;;;;1.83;1.73;;;23.40;99.90;;;;;;5113662;28;20453;-84
2022/07/30 12:26:01;;;;;;;1.27;0.70;;;23.40;99.90;;;;;;5101912;28;20481;-85
2022/07/30 12:48:52;;;;;;;3.17;0.90;;;15.00;99.90;;;;;;5097667;27;20430;-86
2022/07/30 12:51:19;;;;;;;1.30;0.70;;;15.40;99.90;;;;;;5110895;27;20488;-86
2022/07/30 12:53:46;;;;;;;0.80;0.53;;;15.70;99.90;;;;;;5112990;27;20551;-86
2022/07/30 12:56:15;;;;;;;0.50;0.50;;;15.90;99.90;;;;;;5115090;27;20529;-86
2022/07/30 12:58:42;;;;;;;0.47;0.47;;;16.10;99.90;;;;;;5110988;27;20492;-85
2022/07/30 13:01:10;;;;;;;0.87;0.50;;;16.20;99.90;;;;;;5108692;27;20543;-84
2022/07/30 13:03:41;;;;;;;1.03;0.70;;;16.60;99.90;;;;;;5105869;27;20488;-84
2022/07/30 13:06:22;;;;;;;0.93;0.70;;;16.70;99.90;;;;;;5111753;27;20473;-84
2022/07/30 13:08:53;;;;;;;1.20;0.90;;;16.90;99.90;;;;;;5111109;27;20518;-84
2022/07/30 13:11:22;;;;;;;1.00;0.77;;;17.10;99.90;;;;;;5111352;27;20924;-84
2022/07/30 13:13:51;;;;;;;0.77;0.77;;;17.10;99.90;;;;;;5107101;27;21157;-84
2022/07/30 13:16:19;;;;;;;0.87;0.70;;;17.10;99.90;;;;;;5113103;27;21099;-85
2022/07/30 13:18:47;;;;;;;0.77;0.70;;;17.10;99.90;;;;;;5111232;27;20461;-85
2022/07/30 13:21:14;;;;;;;0.63;0.63;;;17.10;99.90;;;;;;5114043;27;20485;-84